SOCA

Details ICAO SOCA (CAY)
Name Cayenne Rochambeau
Region French Guiana
Timezone America/Cayenne (UTC-3.0)
Plans Departing 134
Arriving 135
Stats Elevation 26 ft / 8 m (AMSL)
Location 4.819807° -52.360446°
Runways 1
Magnetic Variation 18.389° W
Sunrise 2017-12-14 09:30:15 UTC / 2017-12-14 06:30:15 Local
Sunset 2017-12-14 21:20:56 UTC / 2017-12-14 18:20:56 Local
Advertisement - Login to hide

Runways

ID Width Length Bearing (true) Bearing (mag) Surface Threshold Offset Overrun Length
08 148 ft / 45 m 10,489 ft / 3,197 m 65.20° 83.59° Asphalt 0 ft / 0 m 244 ft / 74 m
26 148 ft / 45 m 10,489 ft / 3,197 m 245.20° 263.59° Asphalt 0 ft / 0 m 0 ft / 0 m

Map

Weather


0- 5 10 15 20 25 30 35+ Temperature / ° C

Clouds and Precipitation
Forecast for 2017-12-14 18:00 UTC. Updated 2 hours ago

Ground ~20,000 ft ~40,000 ft Winds

METAR

SOCA 141500Z AUTO 08011KT 9999 SCT027 BKN034 31/24 Q1013 TEMPO 3000 SHRA FEW012TCU

TAF

TAF SOCA 141100Z 1412/1512 09008KT 9999 FEW020 BKN030 TEMPO 1412/1418 3000 SHRA FEW012TCU BECMG 1500/1502 VRB02KT PROB30 TEMPO 1504/1510 3000 SHRA FEW014TCU

Frequencies

Recorded 132.20 MHz ATIS
Approach 119.90 MHz APP
Tower 118.10 MHz TWR
Warning: Do not use this data for real-world aviation or navigation. No guarantee of current accuracy is given.